Time;durP1;ratioP1;P1;durP2;ratioP2;P2;SDS_P1;SDS_P2;PMS_P1;PMS_P2;Temp;Humidity;BMP_temperature;BMP_pressure;BME280_temperature;BME280_humidity;BME280_pressure;Samples;Min_cycle;Max_cycle;Signal;HPM_P1;HPM_P2
2023/05/04 00:01:03;;;;;;;8.80;4.65;;;2.50;89.10;;;;;;4984225;28;20528;-84
2023/05/04 00:03:30;;;;;;;8.82;4.63;;;2.60;89.30;;;;;;4978377;28;20073;-85
2023/05/04 00:05:57;;;;;;;12.02;4.50;;;2.50;88.50;;;;;;4985781;28;20049;-84
2023/05/04 00:08:24;;;;;;;11.27;4.18;;;2.50;88.20;;;;;;4976904;28;20104;-85
2023/05/04 00:10:51;;;;;;;9.93;4.00;;;2.40;88.70;;;;;;4984273;28;20061;-85
2023/05/04 00:13:17;;;;;;;16.23;4.70;;;2.50;88.90;;;;;;4985906;28;20042;-85
2023/05/04 00:15:44;;;;;;;10.20;3.78;;;2.40;88.90;;;;;;5005435;28;20050;-85
2023/05/04 00:18:11;;;;;;;18.67;4.47;;;2.30;88.70;;;;;;4999319;28;20142;-85
2023/05/04 00:20:38;;;;;;;18.50;3.65;;;2.30;89.40;;;;;;4988510;28;20056;-85
2023/05/04 00:23:05;;;;;;;12.98;4.13;;;2.30;89.50;;;;;;5002184;28;20129;-85
2023/05/04 00:25:32;;;;;;;16.40;4.78;;;2.20;89.10;;;;;;4989321;28;20140;-85
2023/05/04 00:27:59;;;;;;;12.13;4.40;;;2.20;89.50;;;;;;4984798;28;20066;-85
2023/05/04 00:30:26;;;;;;;9.27;4.22;;;2.10;89.20;;;;;;5005539;28;20129;-85
2023/05/04 00:32:52;;;;;;;9.65;3.60;;;2.20;89.50;;;;;;4989268;28;20448;-85
2023/05/04 00:35:19;;;;;;;18.35;4.43;;;2.20;90.20;;;;;;5004781;28;20394;-85
2023/05/04 00:37:46;;;;;;;9.80;4.20;;;2.20;90.00;;;;;;4978244;28;20078;-85
2023/05/04 00:40:13;;;;;;;18.63;4.63;;;2.10;90.20;;;;;;4985033;28;20046;-85
2023/05/04 00:42:40;;;;;;;10.18;3.92;;;2.10;90.00;;;;;;4991088;28;20046;-84
2023/05/04 00:45:07;;;;;;;14.65;4.05;;;2.00;90.90;;;;;;4998053;28;20065;-85
2023/05/04 00:47:34;;;;;;;14.05;4.68;;;2.00;90.70;;;;;;4992501;28;20053;-85
2023/05/04 00:50:03;;;;;;;17.60;4.30;;;2.00;90.70;;;;;;4995928;28;20056;-85
2023/05/04 00:52:31;;;;;;;9.65;4.00;;;1.90;91.00;;;;;;4998639;28;20056;-84
2023/05/04 00:55:00;;;;;;;10.88;4.22;;;1.90;91.00;;;;;;5006584;28;20042;-85
2023/05/04 00:57:27;;;;;;;12.07;4.68;;;1.80;91.20;;;;;;4989322;28;20046;-85
2023/05/04 00:59:55;;;;;;;10.25;3.75;;;1.70;91.10;;;;;;4989368;28;20087;-85
2023/05/04 01:02:22;;;;;;;10.82;4.00;;;1.70;91.70;;;;;;4987729;28;20539;-84
2023/05/04 01:04:49;;;;;;;11.07;4.25;;;1.60;91.30;;;;;;4992056;28;20141;-84
2023/05/04 01:07:25;;;;;;;8.52;3.67;;;1.60;91.60;;;;;;4991468;28;20505;-84
2023/05/04 01:10:03;;;;;;;16.83;5.78;;;1.60;91.70;;;;;;4991247;28;20081;-84
2023/05/04 01:12:39;;;;;;;18.98;6.03;;;1.50;91.50;;;;;;5013441;28;20049;-84
2023/05/04 01:15:08;;;;;;;14.13;4.60;;;1.50;91.40;;;;;;4986918;28;20454;-84
2023/05/04 01:17:35;;;;;;;19.00;5.28;;;1.50;91.90;;;;;;4994241;28;20046;-84
2023/05/04 01:20:02;;;;;;;16.23;5.15;;;1.50;92.50;;;;;;4990047;28;20132;-85
2023/05/04 01:22:30;;;;;;;19.70;5.45;;;1.50;92.40;;;;;;4996906;28;20046;-85
2023/05/04 01:24:57;;;;;;;15.52;5.35;;;1.50;92.40;;;;;;5006326;28;20402;-85
2023/05/04 01:27:30;;;;;;;17.38;5.28;;;1.40;92.30;;;;;;4999526;28;20053;-85
2023/05/04 01:30:19;;;;;;;9.23;4.65;;;1.40;92.60;;;;;;5009729;28;20052;-85
2023/05/04 01:32:46;;;;;;;16.20;4.88;;;1.30;92.70;;;;;;4999177;28;20137;-85
2023/05/04 01:35:15;;;;;;;15.48;5.35;;;1.30;93.10;;;;;;4992148;28;20112;-84
2023/05/04 01:37:42;;;;;;;14.85;4.75;;;1.30;92.90;;;;;;5006686;28;20060;-85
2023/05/04 01:40:09;;;;;;;18.63;4.85;;;1.30;93.10;;;;;;4992845;28;20046;-85
2023/05/04 01:42:36;;;;;;;24.90;5.30;;;1.20;92.50;;;;;;4997847;28;20058;-84
2023/05/04 01:45:03;;;;;;;13.80;4.68;;;1.20;93.10;;;;;;4980661;28;20053;-85
2023/05/04 01:47:30;;;;;;;10.52;4.97;;;1.20;93.10;;;;;;5010527;28;20061;-85
2023/05/04 01:49:57;;;;;;;11.25;4.80;;;1.10;93.20;;;;;;4992871;28;20202;-85
2023/05/04 01:52:24;;;;;;;12.43;4.30;;;1.10;93.00;;;;;;4987410;28;20137;-85
2023/05/04 01:54:51;;;;;;;8.93;4.13;;;1.00;93.10;;;;;;4984791;28;20057;-85
2023/05/04 01:57:18;;;;;;;14.95;4.95;;;1.00;93.30;;;;;;5000551;28;20077;-85
2023/05/04 01:59:45;;;;;;;14.82;4.63;;;1.00;93.80;;;;;;4983889;28;20042;-85
2023/05/04 02:02:11;;;;;;;14.75;4.75;;;1.00;94.20;;;;;;5004446;28;20084;-84
2023/05/04 02:04:38;;;;;;;12.38;4.38;;;1.00;93.90;;;;;;5004191;28;20077;-84
2023/05/04 02:07:05;;;;;;;18.08;5.38;;;0.90;93.70;;;;;;5007300;28;20046;-85
2023/05/04 02:09:34;;;;;;;17.67;5.03;;;0.90;94.00;;;;;;5004079;28;20062;-84
2023/05/04 02:12:01;;;;;;;10.40;4.75;;;0.80;93.60;;;;;;4983567;28;20085;-85
2023/05/04 02:14:28;;;;;;;12.50;4.43;;;0.80;93.70;;;;;;5001650;28;20058;-84
2023/05/04 02:16:55;;;;;;;16.35;4.60;;;0.80;93.30;;;;;;4991400;28;20057;-85
2023/05/04 02:19:22;;;;;;;11.98;4.97;;;0.90;93.50;;;;;;4986732;28;20129;-85
2023/05/04 02:21:49;;;;;;;14.73;4.75;;;0.90;93.60;;;;;;4990068;28;20376;-84
2023/05/04 02:24:16;;;;;;;15.15;4.47;;;0.80;93.10;;;;;;5012095;28;20396;-84
2023/05/04 02:26:43;;;;;;;12.50;4.53;;;0.80;93.30;;;;;;4980269;28;20050;-84
2023/05/04 02:29:09;;;;;;;16.02;3.88;;;0.80;93.40;;;;;;5010957;28;20050;-84
2023/05/04 02:31:36;;;;;;;9.25;3.90;;;0.80;93.20;;;;;;5008981;28;20046;-84
2023/05/04 02:34:03;;;;;;;8.77;3.80;;;0.80;93.40;;;;;;4991500;28;20045;-84
2023/05/04 02:36:30;;;;;;;13.43;3.78;;;0.80;92.80;;;;;;4983790;28;20049;-84
2023/05/04 02:38:59;;;;;;;10.43;4.38;;;0.80;93.00;;;;;;5007543;28;20046;-84
2023/05/04 02:41:26;;;;;;;10.15;4.82;;;0.90;92.60;;;;;;4998056;28;20045;-84
2023/05/04 02:43:53;;;;;;;14.20;5.07;;;0.90;92.30;;;;;;5008375;28;20411;-84
2023/05/04 02:46:20;;;;;;;25.85;11.90;;;0.80;92.30;;;;;;4987697;28;20766;-84
2023/05/04 02:48:47;;;;;;;26.10;14.35;;;0.80;92.30;;;;;;4982094;28;20491;-85
2023/05/04 02:51:14;;;;;;;23.33;12.60;;;0.80;92.80;;;;;;4991374;28;20060;-84
2023/05/04 02:53:40;;;;;;;31.70;15.68;;;0.80;92.60;;;;;;4989657;28;20049;-84
2023/05/04 02:56:07;;;;;;;28.52;13.50;;;0.70;92.30;;;;;;4983749;28;20049;-84
2023/05/04 02:58:34;;;;;;;25.63;12.15;;;0.70;92.50;;;;;;4987585;28;20050;-85
2023/05/04 03:01:01;;;;;;;37.35;17.25;;;0.70;92.70;;;;;;5003670;28;20049;-85
2023/05/04 03:03:28;;;;;;;24.95;13.68;;;0.60;93.00;;;;;;4979711;28;20120;-84
2023/05/04 03:05:55;;;;;;;18.92;9.80;;;0.60;93.00;;;;;;4973384;28;20055;-83
2023/05/04 03:08:21;;;;;;;23.35;9.18;;;0.60;93.50;;;;;;4977057;28;20076;-84
2023/05/04 03:10:48;;;;;;;38.30;15.77;;;0.50;93.60;;;;;;4983570;28;20529;-84
2023/05/04 03:13:15;;;;;;;37.47;16.65;;;0.50;94.00;;;;;;5002320;28;20057;-84
2023/05/04 03:15:42;;;;;;;37.08;19.35;;;0.50;93.70;;;;;;4978371;28;20050;-83
2023/05/04 03:18:09;;;;;;;47.15;21.63;;;0.40;93.30;;;;;;4999680;28;20138;-84
2023/05/04 03:20:36;;;;;;;42.20;21.40;;;0.40;93.60;;;;;;4979403;28;20049;-83
2023/05/04 03:23:03;;;;;;;59.92;31.92;;;0.40;93.40;;;;;;4979071;28;20053;-83
2023/05/04 03:25:29;;;;;;;52.13;27.67;;;0.40;93.90;;;;;;4980846;28;20069;-84
2023/05/04 03:27:56;;;;;;;43.88;20.52;;;0.40;94.00;;;;;;5002886;28;20060;-84
2023/05/04 03:30:23;;;;;;;27.42;14.07;;;0.40;94.10;;;;;;5001939;28;20498;-84
2023/05/04 03:32:50;;;;;;;28.77;11.15;;;0.50;94.40;;;;;;4985300;28;20046;-84
2023/05/04 03:35:17;;;;;;;19.35;8.05;;;0.50;94.20;;;;;;4983167;28;20057;-84
2023/05/04 03:37:50;;;;;;;17.63;7.07;;;0.40;94.00;;;;;;4976811;28;20129;-84
2023/05/04 03:40:21;;;;;;;19.17;5.88;;;0.50;94.40;;;;;;5004136;28;20711;-83
2023/05/04 03:42:48;;;;;;;14.50;5.68;;;0.50;94.30;;;;;;5001227;28;20053;-83
2023/05/04 03:45:15;;;;;;;15.80;5.57;;;0.50;93.90;;;;;;4979943;28;20052;-84
2023/05/04 03:47:42;;;;;;;15.90;5.80;;;0.40;94.00;;;;;;4985632;28;20068;-83
2023/05/04 03:50:10;;;;;;;13.98;5.18;;;0.40;94.40;;;;;;5008425;28;20041;-84
2023/05/04 03:52:36;;;;;;;12.35;5.22;;;0.40;93.90;;;;;;4990263;28;20564;-83
2023/05/04 03:55:04;;;;;;;12.20;5.05;;;0.40;94.00;;;;;;4990500;28;20135;-84
2023/05/04 03:57:31;;;;;;;15.20;4.97;;;0.40;93.70;;;;;;4990079;28;20137;-84
2023/05/04 03:59:57;;;;;;;12.05;4.40;;;0.40;94.00;;;;;;5002956;28;20038;-84
2023/05/04 04:02:24;;;;;;;12.13;4.82;;;0.30;94.10;;;;;;4980773;28;20049;-84
2023/05/04 04:04:52;;;;;;;11.73;4.38;;;0.30;94.30;;;;;;4983798;28;20076;-83
2023/05/04 04:07:18;;;;;;;15.93;4.82;;;0.40;94.60;;;;;;4988415;28;20061;-83
2023/05/04 04:09:45;;;;;;;11.25;5.25;;;0.40;94.60;;;;;;4996060;28;20144;-83
2023/05/04 04:12:12;;;;;;;8.48;4.70;;;0.40;94.30;;;;;;4993290;28;20058;-84
2023/05/04 04:14:39;;;;;;;11.40;4.75;;;0.50;94.60;;;;;;4989376;28;20046;-84
2023/05/04 04:17:07;;;;;;;12.60;5.78;;;0.50;94.70;;;;;;4995199;28;20046;-84
2023/05/04 04:19:34;;;;;;;9.55;4.45;;;0.60;94.60;;;;;;4987271;28;20326;-84
2023/05/04 04:22:00;;;;;;;11.23;4.97;;;0.70;94.70;;;;;;4977252;28;20044;-84
2023/05/04 04:24:27;;;;;;;12.93;5.45;;;0.70;94.40;;;;;;4981578;28;20052;-84
2023/05/04 04:26:54;;;;;;;15.20;4.88;;;0.70;93.90;;;;;;4988284;28;20053;-85
2023/05/04 04:29:21;;;;;;;13.20;4.97;;;0.70;94.00;;;;;;5003014;28;20380;-85
2023/05/04 04:31:48;;;;;;;10.40;4.20;;;0.80;94.00;;;;;;4989341;28;20458;-85
2023/05/04 04:34:15;;;;;;;10.48;4.95;;;0.80;93.90;;;;;;4979428;28;20054;-85
2023/05/04 04:36:42;;;;;;;18.80;4.45;;;0.90;94.30;;;;;;4988967;28;20047;-84
2023/05/04 04:39:09;;;;;;;8.43;4.38;;;0.90;94.10;;;;;;4979420;28;20043;-84
2023/05/04 04:41:37;;;;;;;29.10;5.18;;;1.00;94.00;;;;;;5000027;28;20050;-85
2023/05/04 04:44:04;;;;;;;25.58;5.45;;;1.00;94.50;;;;;;4985588;28;21020;-85
2023/05/04 04:46:31;;;;;;;16.20;5.95;;;1.10;94.60;;;;;;4983716;28;20080;-83
2023/05/04 04:48:58;;;;;;;32.85;7.53;;;1.20;94.30;;;;;;4983686;28;20426;-84
2023/05/04 04:51:25;;;;;;;35.08;7.30;;;1.20;94.20;;;;;;5003325;28;20057;-84
2023/05/04 04:53:52;;;;;;;25.83;6.10;;;1.30;94.60;;;;;;4990008;28;20096;-84
2023/05/04 04:56:19;;;;;;;12.15;5.72;;;1.40;94.50;;;;;;4999373;28;20053;-85
2023/05/04 04:58:46;;;;;;;18.63;6.00;;;1.40;94.70;;;;;;5003436;28;20050;-86
2023/05/04 05:01:16;;;;;;;14.52;5.50;;;1.50;94.60;;;;;;5000368;28;20101;-86
2023/05/04 05:03:44;;;;;;;21.13;7.05;;;1.60;94.60;;;;;;4988761;28;20056;-85
2023/05/04 05:06:12;;;;;;;26.60;7.70;;;1.60;94.30;;;;;;4984168;28;20520;-79
2023/05/04 05:08:40;;;;;;;17.95;7.60;;;1.70;93.90;;;;;;4986874;28;20054;-85
2023/05/04 05:11:07;;;;;;;22.88;7.25;;;1.80;94.50;;;;;;5004343;28;20046;-88
2023/05/04 05:13:34;;;;;;;19.33;7.43;;;1.80;94.00;;;;;;4999779;28;20693;-91
2023/05/04 05:16:01;;;;;;;16.38;6.90;;;1.90;94.40;;;;;;4986482;28;20081;-79
2023/05/04 05:18:28;;;;;;;14.27;6.45;;;2.00;94.40;;;;;;4983030;28;20042;-81
2023/05/04 05:20:55;;;;;;;32.13;8.13;;;2.10;94.20;;;;;;4980641;28;20060;-82
2023/05/04 05:23:22;;;;;;;19.98;8.85;;;2.20;94.20;;;;;;4984606;28;20045;-86
2023/05/04 05:25:50;;;;;;;22.95;8.55;;;2.30;93.90;;;;;;4982028;28;20068;-83
2023/05/04 05:28:17;;;;;;;28.42;8.10;;;2.40;94.10;;;;;;4982080;28;20093;-86
2023/05/04 05:30:44;;;;;;;25.33;8.75;;;2.50;93.70;;;;;;4988546;28;20062;-81
2023/05/04 05:33:11;;;;;;;22.95;9.65;;;2.60;93.70;;;;;;4985951;28;20045;-83
2023/05/04 05:35:38;;;;;;;26.77;10.85;;;2.80;93.80;;;;;;4980295;28;20472;-85
2023/05/04 05:38:05;;;;;;;23.75;9.30;;;3.00;93.10;;;;;;4977873;28;20510;-81
2023/05/04 05:40:32;;;;;;;20.60;7.28;;;3.20;92.80;;;;;;4977213;28;20057;-81
2023/05/04 05:42:59;;;;;;;21.67;7.00;;;3.30;92.90;;;;;;5002785;28;20087;-81
2023/05/04 05:45:26;;;;;;;13.15;5.53;;;3.50;92.70;;;;;;4988003;28;20060;-81
2023/05/04 05:47:52;;;;;;;22.65;7.03;;;3.70;92.10;;;;;;4982194;28;20065;-81
2023/05/04 05:50:19;;;;;;;15.70;6.40;;;3.90;92.20;;;;;;4982442;28;20050;-81
2023/05/04 05:52:46;;;;;;;29.05;6.97;;;4.20;91.60;;;;;;5005933;28;20401;-82
2023/05/04 05:55:13;;;;;;;18.25;7.00;;;4.50;90.80;;;;;;5005243;28;20068;-80
2023/05/04 05:57:40;;;;;;;29.70;7.03;;;4.70;90.10;;;;;;4974434;28;20158;-81
2023/05/04 06:00:08;;;;;;;15.95;6.70;;;5.00;89.00;;;;;;4986195;28;20053;-82
2023/05/04 06:02:34;;;;;;;21.83;6.35;;;5.10;88.40;;;;;;4984317;28;20077;-80
2023/05/04 06:05:02;;;;;;;24.80;6.78;;;5.40;87.80;;;;;;4998217;28;20465;-81
2023/05/04 06:07:29;;;;;;;19.85;6.63;;;5.70;87.10;;;;;;4988163;28;20108;-81
2023/05/04 06:09:56;;;;;;;20.42;6.55;;;6.00;86.30;;;;;;4982024;28;20418;-80
2023/05/04 06:12:23;;;;;;;22.73;6.50;;;6.50;86.50;;;;;;5002324;28;20053;-82
2023/05/04 06:14:49;;;;;;;21.83;6.00;;;6.90;83.50;;;;;;4977238;28;20092;-82
2023/05/04 06:17:17;;;;;;;18.50;6.05;;;7.40;81.80;;;;;;4978242;28;20072;-81
2023/05/04 06:19:44;;;;;;;16.02;5.93;;;7.90;81.00;;;;;;5002985;28;20761;-81
2023/05/04 06:22:13;;;;;;;17.15;6.50;;;8.40;80.50;;;;;;4991567;28;20490;-82
2023/05/04 06:24:40;;;;;;;24.48;6.65;;;8.90;76.30;;;;;;4996885;28;20053;-82
2023/05/04 06:27:07;;;;;;;18.80;6.43;;;9.60;74.40;;;;;;5000413;28;20053;-81
2023/05/04 06:29:37;;;;;;;28.85;6.65;;;10.30;71.30;;;;;;4978708;28;20057;-82
2023/05/04 06:32:04;;;;;;;21.85;5.88;;;10.80;69.00;;;;;;4986173;28;20384;-83
2023/05/04 06:34:31;;;;;;;13.18;5.40;;;11.00;66.10;;;;;;4982083;28;20049;-82
2023/05/04 06:36:57;;;;;;;13.10;4.68;;;12.00;65.20;;;;;;4986192;28;20494;-83
2023/05/04 06:39:24;;;;;;;20.58;4.97;;;12.40;63.30;;;;;;5001153;28;20053;-82
2023/05/04 06:41:54;;;;;;;13.00;3.88;;;13.00;61.30;;;;;;4997037;28;20136;-82
2023/05/04 06:44:21;;;;;;;19.65;4.32;;;13.20;59.00;;;;;;5005127;28;20088;-82
2023/05/04 06:46:48;;;;;;;31.00;5.25;;;13.40;60.20;;;;;;4983585;28;20052;-82
2023/05/04 06:49:16;;;;;;;18.25;3.80;;;14.10;59.00;;;;;;4998822;28;20137;-82
2023/05/04 06:51:43;;;;;;;8.93;3.03;;;14.80;57.40;;;;;;4996942;28;20054;-82
2023/05/04 06:54:11;;;;;;;13.48;4.00;;;15.20;54.00;;;;;;4985272;28;20053;-82
2023/05/04 06:56:38;;;;;;;11.38;3.25;;;15.20;54.10;;;;;;4987352;28;20046;-82
2023/05/04 06:59:05;;;;;;;15.55;3.47;;;15.60;53.70;;;;;;4999289;28;20074;-82
2023/05/04 07:01:32;;;;;;;9.90;2.90;;;16.00;53.00;;;;;;4973886;28;20046;-82
2023/05/04 07:03:59;;;;;;;8.40;3.00;;;17.10;50.60;;;;;;4986066;28;20065;-83
2023/05/04 07:06:27;;;;;;;20.90;3.00;;;17.80;48.10;;;;;;5004242;28;20081;-82
2023/05/04 07:08:54;;;;;;;13.60;2.83;;;17.60;48.10;;;;;;5001754;28;20140;-83
2023/05/04 07:11:21;;;;;;;13.60;2.60;;;18.10;47.20;;;;;;4975021;28;20080;-83
2023/05/04 07:13:48;;;;;;;9.80;2.60;;;17.70;47.40;;;;;;4983331;28;20262;-83
2023/05/04 07:16:15;;;;;;;8.18;2.70;;;17.50;48.20;;;;;;5001302;28;20049;-82
2023/05/04 07:18:42;;;;;;;6.43;2.50;;;18.10;48.30;;;;;;4994328;28;20057;-83
2023/05/04 07:21:11;;;;;;;8.93;2.72;;;18.40;47.30;;;;;;4980798;28;20042;-83
2023/05/04 07:23:53;;;;;;;8.98;2.35;;;18.60;49.20;;;;;;4987991;28;20053;-82
2023/05/04 07:26:21;;;;;;;9.75;2.60;;;18.80;46.40;;;;;;4982983;28;20499;-83
2023/05/04 07:28:48;;;;;;;10.80;3.40;;;18.90;46.30;;;;;;5000486;28;20062;-82
2023/05/04 07:31:15;;;;;;;15.30;3.35;;;19.40;46.30;;;;;;4972867;28;20061;-82
2023/05/04 07:33:42;;;;;;;7.07;2.13;;;19.80;46.30;;;;;;4980573;28;20065;-82
2023/05/04 07:36:09;;;;;;;7.35;2.55;;;19.10;45.80;;;;;;4996109;28;20124;-81
2023/05/04 07:38:36;;;;;;;8.02;2.70;;;19.30;45.60;;;;;;4984659;28;20077;-81
2023/05/04 07:41:02;;;;;;;9.00;2.65;;;19.30;46.20;;;;;;4984713;28;20376;-80
2023/05/04 07:43:29;;;;;;;7.65;2.30;;;19.40;45.20;;;;;;4976716;28;20050;-80
2023/05/04 07:45:56;;;;;;;10.15;2.33;;;19.00;45.60;;;;;;4995787;28;20054;-80
2023/05/04 07:48:23;;;;;;;9.80;2.15;;;18.80;46.40;;;;;;4981669;28;20460;-80
2023/05/04 07:50:52;;;;;;;9.50;2.42;;;18.50;45.70;;;;;;4973269;28;20054;-80
2023/05/04 07:53:19;;;;;;;6.43;2.33;;;18.70;45.70;;;;;;4966672;28;20054;-80
2023/05/04 07:55:47;;;;;;;12.63;2.53;;;18.70;45.80;;;;;;4984913;28;20403;-80
2023/05/04 07:58:15;;;;;;;9.68;2.67;;;19.20;46.90;;;;;;4986042;28;20053;-80
2023/05/04 08:00:42;;;;;;;15.30;3.08;;;20.00;44.70;;;;;;4988860;28;20074;-80
2023/05/04 08:03:09;;;;;;;8.48;2.40;;;20.00;44.60;;;;;;4996490;28;20104;-80
2023/05/04 08:05:36;;;;;;;5.22;2.40;;;20.30;45.80;;;;;;4996324;28;20058;-80
2023/05/04 08:08:03;;;;;;;7.72;3.67;;;20.70;44.20;;;;;;4998387;28;20050;-80
2023/05/04 08:10:30;;;;;;;6.05;2.50;;;20.10;44.80;;;;;;4973145;28;20049;-81
2023/05/04 08:12:57;;;;;;;12.02;2.63;;;20.40;45.70;;;;;;4985427;28;20046;-80
2023/05/04 08:15:24;;;;;;;7.35;2.70;;;21.20;44.50;;;;;;4969871;28;20565;-80
2023/05/04 08:17:51;;;;;;;13.65;3.17;;;21.70;43.10;;;;;;4977738;28;20514;-81
2023/05/04 08:20:18;;;;;;;8.35;2.92;;;21.20;42.30;;;;;;4993761;28;20128;-81
2023/05/04 08:22:47;;;;;;;6.25;2.45;;;21.30;42.30;;;;;;4982839;28;20573;-81
2023/05/04 08:25:14;;;;;;;8.18;2.38;;;20.80;41.90;;;;;;4981137;28;20156;-82
2023/05/04 08:27:41;;;;;;;9.77;2.33;;;20.60;42.40;;;;;;4985318;28;20058;-81
2023/05/04 08:30:08;;;;;;;9.65;2.40;;;20.00;42.30;;;;;;4992421;28;20057;-82
2023/05/04 08:32:35;;;;;;;7.53;2.42;;;19.80;43.80;;;;;;4988318;28;20138;-81
2023/05/04 08:35:02;;;;;;;10.32;2.47;;;20.00;42.60;;;;;;4977367;28;20184;-80
2023/05/04 08:37:29;;;;;;;9.88;2.67;;;19.80;42.10;;;;;;4981309;28;20057;-83
2023/05/04 08:39:56;;;;;;;13.52;3.08;;;20.30;45.20;;;;;;4995043;28;20486;-81
2023/05/04 08:42:31;;;;;;;13.60;3.10;;;20.10;43.10;;;;;;4981600;28;20548;-80
2023/05/04 08:44:58;;;;;;;6.60;2.40;;;20.70;41.10;;;;;;4971142;28;20140;-81
2023/05/04 08:47:27;;;;;;;9.85;2.55;;;20.50;40.60;;;;;;4981811;28;20050;-80
2023/05/04 08:49:57;;;;;;;9.18;2.95;;;19.50;44.40;;;;;;4994609;28;20050;-80
2023/05/04 08:52:25;;;;;;;11.80;2.65;;;19.90;43.10;;;;;;4994817;28;20050;-80
2023/05/04 08:54:56;;;;;;;8.07;3.08;;;20.00;43.40;;;;;;4971911;28;20140;-80
2023/05/04 08:57:24;;;;;;;8.27;2.85;;;20.70;42.60;;;;;;4975889;28;20134;-80
2023/05/04 08:59:53;;;;;;;9.95;2.53;;;20.60;43.40;;;;;;4995890;28;20131;-80
2023/05/04 09:02:22;;;;;;;17.45;2.65;;;21.60;42.30;;;;;;4998273;28;20549;-81
2023/05/04 09:04:51;;;;;;;8.23;2.70;;;22.00;41.30;;;;;;4981699;28;20588;-80
2023/05/04 09:07:19;;;;;;;10.27;3.10;;;22.00;41.50;;;;;;4975220;28;20419;-81
2023/05/04 09:09:49;;;;;;;14.00;3.00;;;22.40;40.80;;;;;;4969900;28;20471;-81
2023/05/04 09:12:17;;;;;;;10.20;2.47;;;22.10;40.40;;;;;;4985195;28;20133;-80
2023/05/04 09:14:48;;;;;;;20.42;3.67;;;22.40;39.90;;;;;;4984579;28;20050;-81
2023/05/04 09:17:24;;;;;;;7.53;2.65;;;22.40;39.00;;;;;;4977232;28;20383;-81
2023/05/04 09:20:01;;;;;;;7.30;2.50;;;21.80;40.20;;;;;;5002120;28;20054;-81
2023/05/04 09:22:29;;;;;;;5.28;2.53;;;22.80;39.90;;;;;;4982031;28;20058;-81
2023/05/04 09:25:10;;;;;;;6.47;2.75;;;23.60;39.40;;;;;;4969555;28;20381;-81
2023/05/04 09:27:40;;;;;;;8.85;3.13;;;23.70;37.10;;;;;;4988129;28;20054;-80
2023/05/04 09:30:07;;;;;;;7.65;2.75;;;23.60;40.60;;;;;;5003564;28;20091;-81
2023/05/04 09:32:48;;;;;;;7.15;2.40;;;24.10;36.80;;;;;;5001146;28;20050;-81
2023/05/04 09:35:29;;;;;;;8.38;2.75;;;24.30;36.30;;;;;;4997441;28;20468;-81
2023/05/04 09:38:03;;;;;;;4.25;2.58;;;23.80;36.70;;;;;;4998005;28;20061;-81
2023/05/04 09:40:40;;;;;;;6.55;2.60;;;24.00;37.90;;;;;;5000698;28;20093;-81
2023/05/04 09:43:08;;;;;;;13.88;2.92;;;24.30;35.50;;;;;;4999821;28;20050;-81
2023/05/04 09:45:43;;;;;;;6.22;2.80;;;23.70;35.50;;;;;;5004072;28;20185;-81
2023/05/04 09:48:32;;;;;;;10.13;2.78;;;23.50;35.80;;;;;;4979845;28;20410;-81
2023/05/04 09:51:05;;;;;;;7.38;2.50;;;22.60;37.00;;;;;;4976670;28;20145;-81
2023/05/04 09:53:36;;;;;;;9.10;2.88;;;22.40;40.10;;;;;;4976626;28;20058;-81
2023/05/04 09:56:21;;;;;;;11.18;3.50;;;22.40;38.00;;;;;;4987231;28;20045;-80
2023/05/04 09:58:49;;;;;;;;;;;22.70;40.60;;;;;;5005734;28;20054;-81
2023/05/04 10:01:16;;;;;;;7.28;2.85;;;23.20;39.40;;;;;;4976796;28;19963;-81
2023/05/04 10:03:45;;;;;;;8.60;2.85;;;22.70;40.20;;;;;;4974967;28;20054;-80
2023/05/04 10:06:11;;;;;;;9.00;2.90;;;22.60;40.00;;;;;;4997906;28;20049;-80
2023/05/04 10:08:40;;;;;;;6.55;3.20;;;23.10;39.00;;;;;;4970628;28;20489;-80
2023/05/04 10:11:07;;;;;;;6.93;2.70;;;23.20;39.30;;;;;;4984064;28;20660;-80
2023/05/04 10:13:34;;;;;;;11.52;2.53;;;23.60;40.00;;;;;;4994505;28;20072;-80
2023/05/04 10:16:40;;;;;;;12.35;2.80;;;24.00;38.90;;;;;;5005832;28;20049;-80
2023/05/04 10:19:15;;;;;;;10.07;2.80;;;24.60;37.60;;;;;;4994196;28;20054;-80
2023/05/04 10:21:46;;;;;;;9.15;3.20;;;24.30;37.60;;;;;;4994718;28;20600;-81
2023/05/04 10:24:31;;;;;;;9.65;3.20;;;23.90;37.70;;;;;;4978986;28;20078;-80
2023/05/04 10:27:03;;;;;;;9.25;2.85;;;23.50;39.20;;;;;;4986123;28;20057;-81
2023/05/04 10:29:34;;;;;;;7.93;2.95;;;23.50;38.20;;;;;;4996721;28;20487;-80
2023/05/04 10:32:02;;;;;;;10.68;3.60;;;22.80;39.40;;;;;;4981242;28;20044;-81
2023/05/04 10:34:30;;;;;;;10.70;3.38;;;22.80;39.00;;;;;;4981162;28;20065;-80
2023/05/04 10:36:58;;;;;;;8.43;3.22;;;22.20;39.00;;;;;;4978205;28;20510;-80
2023/05/04 10:39:28;;;;;;;13.18;3.40;;;22.20;39.20;;;;;;4987863;28;20141;-80
2023/05/04 10:42:03;;;;;;;16.65;3.60;;;22.00;38.60;;;;;;4991481;28;20057;-80
2023/05/04 10:44:31;;;;;;;;;;;22.10;39.90;;;;;;4979775;28;20502;-80
2023/05/04 10:47:04;;;;;;;8.55;2.67;;;22.10;39.80;;;;;;4997109;28;20370;-80
2023/05/04 10:49:32;;;;;;;9.70;3.25;;;22.20;40.50;;;;;;4986968;28;20117;-80
2023/05/04 10:52:07;;;;;;;18.05;3.50;;;22.80;42.80;;;;;;5001716;28;20070;-81
2023/05/04 10:54:38;;;;;;;13.05;2.97;;;23.80;38.90;;;;;;4991374;28;20108;-80
2023/05/04 10:57:16;;;;;;;18.33;5.38;;;24.10;38.10;;;;;;4991996;28;20046;-80
2023/05/04 10:59:56;;;;;;;9.15;3.63;;;23.90;38.10;;;;;;4987992;28;20054;-80
2023/05/04 11:02:25;;;;;;;10.65;4.50;;;23.30;39.20;;;;;;4995914;28;20054;-80
2023/05/04 11:05:03;;;;;;;7.53;3.40;;;22.90;39.70;;;;;;4972655;28;20595;-80
2023/05/04 11:07:37;;;;;;;5.05;2.45;;;23.20;39.80;;;;;;4995304;28;20481;-80
2023/05/04 11:10:07;;;;;;;5.07;2.55;;;23.50;41.00;;;;;;4985304;28;20050;-80
2023/05/04 11:12:36;;;;;;;9.98;3.35;;;24.00;39.40;;;;;;4975530;28;20112;-81
2023/05/04 11:15:08;;;;;;;6.20;2.80;;;24.40;38.00;;;;;;4978132;28;20489;-80
2023/05/04 11:17:48;;;;;;;10.18;3.20;;;24.70;38.00;;;;;;4997046;28;20060;-80
2023/05/04 11:20:20;;;;;;;13.38;3.20;;;24.50;37.70;;;;;;4978113;28;20200;-80
2023/05/04 11:22:48;;;;;;;9.45;2.97;;;24.50;38.00;;;;;;4992874;28;20459;-80
2023/05/04 11:25:16;;;;;;;10.63;3.30;;;24.00;39.40;;;;;;4966227;28;20050;-80
2023/05/04 11:27:43;;;;;;;11.35;3.17;;;23.30;39.00;;;;;;4976294;28;20075;-80
2023/05/04 11:30:10;;;;;;;8.85;3.08;;;22.70;40.30;;;;;;4996582;28;20046;-80
2023/05/04 11:32:41;;;;;;;20.52;3.10;;;22.30;39.70;;;;;;4989805;28;20054;-80
2023/05/04 11:35:19;;;;;;;17.30;3.38;;;22.10;40.00;;;;;;4967337;28;20132;-80
2023/05/04 11:37:46;;;;;;;10.82;4.75;;;21.70;40.50;;;;;;4967167;28;20065;-80
2023/05/04 11:40:15;;;;;;;10.32;3.25;;;21.80;41.20;;;;;;4975677;28;20566;-80
2023/05/04 11:42:42;;;;;;;9.50;3.00;;;22.30;40.60;;;;;;4996245;28;20141;-80
2023/05/04 11:45:18;;;;;;;14.27;3.10;;;22.90;40.60;;;;;;4990879;28;20046;-80
2023/05/04 11:47:46;;;;;;;16.88;3.35;;;23.40;41.30;;;;;;4967179;28;20365;-80
2023/05/04 11:50:16;;;;;;;15.55;3.88;;;24.20;39.80;;;;;;5001950;28;20113;-80
2023/05/04 11:52:43;;;;;;;8.80;2.42;;;23.90;39.40;;;;;;4998669;28;20418;-80
2023/05/04 11:55:23;;;;;;;12.35;2.70;;;24.10;38.80;;;;;;4991960;28;20046;-80
2023/05/04 11:58:07;;;;;;;10.40;2.80;;;24.90;38.90;;;;;;4969129;28;20061;-80
2023/05/04 12:00:48;;;;;;;6.63;2.38;;;25.00;37.80;;;;;;4974331;28;20519;-80
2023/05/04 12:03:24;;;;;;;15.07;3.35;;;24.50;36.40;;;;;;4996993;28;20164;-80
2023/05/04 12:06:02;;;;;;;16.40;2.60;;;23.90;38.00;;;;;;4986983;28;20128;-80
2023/05/04 12:08:34;;;;;;;4.72;2.25;;;23.50;38.00;;;;;;4975806;28;20125;-80
2023/05/04 12:11:13;;;;;;;13.43;3.15;;;23.50;37.50;;;;;;4997234;28;20078;-80
2023/05/04 12:13:42;;;;;;;12.25;2.60;;;22.80;39.30;;;;;;4985429;28;20081;-79
2023/05/04 12:16:12;;;;;;;7.90;2.85;;;23.20;38.90;;;;;;5003029;28;20049;-79
2023/05/04 12:18:40;;;;;;;7.45;2.83;;;23.20;38.40;;;;;;5000912;28;20494;-80
2023/05/04 12:21:27;;;;;;;10.23;2.50;;;22.60;39.60;;;;;;4994214;28;20497;-80
2023/05/04 12:23:56;;;;;;;22.45;2.90;;;22.30;37.80;;;;;;4997841;28;20085;-80
2023/05/04 12:26:23;;;;;;;11.77;2.67;;;22.20;40.30;;;;;;4984624;28;20129;-80
2023/05/04 12:28:50;;;;;;;9.35;2.50;;;22.20;42.00;;;;;;4999109;28;20053;-80
2023/05/04 12:31:17;;;;;;;9.25;2.50;;;22.60;39.50;;;;;;4990149;28;20050;-79
2023/05/04 12:33:44;;;;;;;10.90;3.03;;;22.90;38.50;;;;;;4993790;28;20053;-80
2023/05/04 12:36:11;;;;;;;6.18;2.50;;;23.20;38.30;;;;;;5003001;28;20205;-80
2023/05/04 12:38:38;;;;;;;13.20;2.80;;;22.70;39.30;;;;;;4969988;28;20498;-79
2023/05/04 12:41:09;;;;;;;8.32;2.67;;;22.70;39.60;;;;;;4995061;28;20112;-79
2023/05/04 12:43:36;;;;;;;6.25;2.60;;;22.40;40.10;;;;;;5001201;28;20068;-80
2023/05/04 12:46:03;;;;;;;12.90;2.75;;;22.10;40.60;;;;;;5001341;28;20499;-80
2023/05/04 12:48:31;;;;;;;8.80;2.47;;;22.80;39.50;;;;;;4981626;28;20519;-80
2023/05/04 12:51:00;;;;;;;6.68;2.72;;;22.80;39.60;;;;;;5002781;28;20493;-79
2023/05/04 12:53:28;;;;;;;23.67;3.10;;;22.50;38.80;;;;;;4985577;28;20060;-81